createdAt,value
2023-05-17T00:00:58.119Z,4.78
2023-05-17T00:03:26.058Z,4.60
2023-05-17T00:05:53.476Z,5.22
2023-05-17T00:08:20.335Z,4.63
2023-05-17T00:10:47.045Z,5.05
2023-05-17T00:13:13.807Z,6.70
2023-05-17T00:15:40.673Z,5.05
2023-05-17T00:18:07.587Z,5.53
2023-05-17T00:20:35.951Z,4.95
2023-05-17T00:23:03.226Z,5.13
2023-05-17T00:25:30.672Z,5.07
2023-05-17T00:27:57.605Z,4.97
2023-05-17T00:30:24.315Z,5.10
2023-05-17T00:32:51.204Z,5.75
2023-05-17T00:35:18.082Z,5.15
2023-05-17T00:37:48.005Z,4.95
2023-05-17T00:40:16.419Z,4.38
2023-05-17T00:42:43.295Z,4.45
2023-05-17T00:45:10.950Z,5.43
2023-05-17T00:47:37.881Z,4.88
2023-05-17T00:50:06.398Z,4.40
2023-05-17T00:52:33.427Z,4.22
2023-05-17T00:55:00.422Z,4.70
2023-05-17T00:57:29.251Z,4.45
2023-05-17T00:59:56.921Z,3.85
2023-05-17T01:02:23.972Z,4.88
2023-05-17T01:04:51.049Z,3.83
2023-05-17T01:07:18.201Z,4.38
2023-05-17T01:09:45.682Z,4.28
2023-05-17T01:12:30.794Z,4.38
2023-05-17T01:15:03.590Z,4.78
2023-05-17T01:17:48.804Z,5.20
2023-05-17T01:20:27.012Z,4.25
2023-05-17T01:23:11.941Z,4.20
2023-05-17T01:25:55.483Z,4.07
2023-05-17T01:28:24.812Z,4.20
2023-05-17T01:30:52.395Z,5.45
2023-05-17T01:33:20.587Z,4.75
2023-05-17T01:35:47.581Z,4.97
2023-05-17T01:38:14.384Z,4.28
2023-05-17T01:40:49.797Z,4.85
2023-05-17T01:43:35.514Z,4.68
2023-05-17T01:46:14.486Z,4.50
2023-05-17T01:48:49.804Z,5.07
2023-05-17T01:51:20.287Z,6.65
2023-05-17T01:53:51.958Z,5.50
2023-05-17T01:56:33.543Z,5.70
2023-05-17T01:59:04.705Z,5.63
2023-05-17T02:01:33.082Z,4.95
2023-05-17T02:03:59.903Z,4.13
2023-05-17T02:06:26.675Z,4.82
2023-05-17T02:08:53.818Z,4.95
2023-05-17T02:11:20.706Z,4.82
2023-05-17T02:13:47.470Z,5.60
2023-05-17T02:16:14.275Z,6.13
2023-05-17T02:18:41.377Z,5.57
2023-05-17T02:21:08.302Z,6.43
2023-05-17T02:23:35.027Z,6.18
2023-05-17T02:26:01.791Z,5.82
2023-05-17T02:28:28.520Z,7.40
2023-05-17T02:30:56.617Z,7.10
2023-05-17T02:33:23.740Z,5.35
2023-05-17T02:35:50.713Z,6.00
2023-05-17T02:38:17.620Z,7.20
2023-05-17T02:40:44.408Z,7.15
2023-05-17T02:43:11.145Z,6.82
2023-05-17T02:45:37.880Z,6.18
2023-05-17T02:48:05.015Z,6.38
2023-05-17T02:50:31.901Z,5.85
2023-05-17T02:52:58.656Z,5.70
2023-05-17T02:55:25.559Z,6.55
2023-05-17T02:57:52.380Z,6.30
2023-05-17T03:02:53.008Z,5.93
2023-05-17T03:05:19.847Z,6.30
2023-05-17T03:07:46.574Z,6.05
2023-05-17T03:10:13.354Z,5.85
2023-05-17T03:12:40.132Z,5.35
2023-05-17T03:15:07.345Z,6.28
2023-05-17T03:17:34.201Z,5.65
2023-05-17T03:20:01.113Z,5.00
2023-05-17T03:22:28.266Z,5.90
2023-05-17T03:24:55.020Z,5.45
2023-05-17T03:27:21.831Z,5.65
2023-05-17T03:29:51.282Z,6.10
2023-05-17T03:32:18.094Z,6.00
2023-05-17T03:34:44.877Z,4.68
2023-05-17T03:37:11.641Z,5.85
2023-05-17T03:39:38.402Z,4.80
2023-05-17T03:42:06.423Z,5.45
2023-05-17T03:44:33.176Z,5.15
2023-05-17T03:46:59.998Z,4.65
2023-05-17T03:49:26.725Z,5.47
2023-05-17T03:51:53.473Z,5.00
2023-05-17T03:54:20.227Z,5.70
2023-05-17T03:56:49.203Z,5.35
2023-05-17T03:59:16.960Z,4.47
2023-05-17T04:01:45.658Z,4.88
2023-05-17T04:04:12.525Z,5.93
2023-05-17T04:06:41.224Z,5.38
2023-05-17T04:09:11.015Z,4.57
2023-05-17T04:11:38.384Z,5.75
2023-05-17T04:14:05.713Z,4.80
2023-05-17T04:16:32.592Z,5.85
2023-05-17T04:19:02.564Z,5.43
2023-05-17T04:21:29.557Z,5.43
2023-05-17T04:23:56.306Z,5.00
2023-05-17T04:26:23.634Z,5.15
2023-05-17T04:28:50.920Z,5.20
2023-05-17T04:31:18.289Z,5.10
2023-05-17T04:33:45.428Z,5.72
2023-05-17T04:36:12.298Z,5.38
2023-05-17T04:38:39.149Z,5.32
2023-05-17T04:41:06.788Z,4.63
2023-05-17T04:43:33.760Z,5.68
2023-05-17T04:46:00.975Z,6.45
2023-05-17T04:48:32.684Z,5.47
2023-05-17T04:51:06.897Z,6.78
2023-05-17T04:53:33.985Z,5.60
2023-05-17T04:56:00.832Z,5.10
2023-05-17T04:58:27.655Z,4.43
2023-05-17T05:00:54.522Z,4.45
2023-05-17T05:03:22.814Z,4.90
2023-05-17T05:05:49.814Z,5.70
2023-05-17T05:08:16.609Z,5.65
2023-05-17T05:10:43.489Z,5.57
2023-05-17T05:13:10.223Z,4.63
2023-05-17T05:15:37.773Z,4.85
2023-05-17T05:18:04.811Z,5.45
2023-05-17T05:20:32.225Z,5.65
2023-05-17T05:23:00.959Z,7.78
2023-05-17T05:25:28.474Z,6.15
2023-05-17T05:28:00.581Z,4.97
2023-05-17T05:30:27.498Z,5.70
2023-05-17T05:32:54.354Z,6.40
2023-05-17T05:35:26.467Z,5.97
2023-05-17T05:40:21.547Z,6.25
2023-05-17T05:42:48.487Z,6.70
2023-05-17T05:45:15.312Z,7.07
2023-05-17T05:47:42.166Z,6.80
2023-05-17T05:50:09.875Z,6.80
2023-05-17T05:52:36.759Z,5.93
2023-05-17T05:55:04.060Z,6.28
2023-05-17T05:57:30.844Z,7.65
2023-05-17T05:59:57.700Z,6.68
2023-05-17T06:02:24.787Z,6.32
2023-05-17T06:04:51.575Z,6.97
2023-05-17T06:07:18.545Z,7.40
2023-05-17T06:09:45.331Z,6.25
2023-05-17T06:12:12.176Z,5.82
2023-05-17T06:14:39.000Z,5.70
2023-05-17T06:17:05.899Z,5.13
2023-05-17T06:19:32.898Z,5.55
2023-05-17T06:21:59.857Z,8.00
2023-05-17T06:24:26.601Z,7.45
2023-05-17T06:26:53.364Z,6.70
2023-05-17T06:29:20.186Z,6.55
2023-05-17T06:31:46.955Z,6.30
2023-05-17T06:34:13.792Z,5.63
2023-05-17T06:36:40.934Z,5.45
2023-05-17T06:39:07.723Z,5.18
2023-05-17T06:41:35.157Z,6.30
2023-05-17T06:44:04.227Z,4.75
2023-05-17T06:46:31.000Z,5.90
2023-05-17T06:48:58.010Z,4.55
2023-05-17T06:51:24.957Z,5.20
2023-05-17T06:53:51.837Z,4.88
2023-05-17T06:56:19.763Z,4.97
2023-05-17T06:58:49.412Z,4.93
2023-05-17T07:01:19.594Z,5.38
2023-05-17T07:03:46.539Z,5.18
2023-05-17T07:06:13.536Z,4.85
2023-05-17T07:08:40.680Z,5.25
2023-05-17T07:11:07.801Z,5.32
2023-05-17T07:13:34.562Z,4.75
2023-05-17T07:16:01.335Z,5.85
2023-05-17T07:18:28.329Z,4.72
2023-05-17T07:20:55.226Z,4.78
2023-05-17T07:23:21.948Z,6.55
2023-05-17T07:25:48.905Z,5.30
2023-05-17T07:28:16.231Z,4.05
2023-05-17T07:30:43.042Z,5.05
2023-05-17T07:33:09.968Z,5.38
2023-05-17T07:35:36.912Z,5.32
2023-05-17T07:38:03.777Z,4.70
2023-05-17T07:40:30.588Z,4.50
2023-05-17T07:42:59.595Z,4.40
2023-05-17T07:45:26.662Z,5.00
2023-05-17T07:47:55.339Z,5.18
2023-05-17T07:50:22.357Z,4.80
2023-05-17T07:52:49.114Z,5.10
2023-05-17T07:55:17.056Z,4.10
2023-05-17T07:57:47.463Z,4.57
2023-05-17T08:00:14.883Z,4.30
2023-05-17T08:02:41.735Z,4.70
2023-05-17T08:05:08.991Z,4.63
2023-05-17T08:07:35.940Z,4.53
2023-05-17T08:10:02.891Z,4.55
2023-05-17T08:12:29.709Z,3.70
2023-05-17T08:14:57.695Z,4.25
2023-05-17T08:17:24.642Z,4.97
2023-05-17T08:19:51.478Z,4.38
2023-05-17T08:22:19.294Z,3.53
2023-05-17T08:24:46.993Z,4.18
2023-05-17T08:27:13.790Z,4.18
2023-05-17T08:29:40.922Z,4.30
2023-05-17T08:32:09.287Z,4.32
2023-05-17T08:34:39.978Z,4.78
2023-05-17T08:37:06.808Z,3.60
2023-05-17T08:39:33.879Z,4.13
2023-05-17T08:42:02.701Z,4.68
2023-05-17T08:44:29.600Z,4.20
2023-05-17T08:46:59.704Z,4.22
2023-05-17T08:49:28.933Z,4.47
2023-05-17T08:51:59.527Z,4.25
2023-05-17T08:54:26.826Z,3.45
2023-05-17T08:57:00.741Z,3.90
2023-05-17T08:59:33.994Z,4.25
2023-05-17T09:02:01.788Z,3.95
2023-05-17T09:04:31.165Z,4.60
2023-05-17T09:06:59.293Z,3.42
2023-05-17T09:09:26.356Z,3.65
2023-05-17T09:11:53.150Z,4.30
2023-05-17T09:14:19.973Z,3.42
2023-05-17T09:16:46.957Z,3.60
2023-05-17T09:19:18.018Z,4.28
2023-05-17T09:21:47.471Z,4.32
2023-05-17T09:24:14.410Z,3.90
2023-05-17T09:26:45.539Z,4.38
2023-05-17T09:29:15.366Z,3.20
2023-05-17T09:31:42.987Z,3.78
2023-05-17T09:34:12.963Z,3.83
2023-05-17T09:36:43.721Z,3.42
2023-05-17T09:39:13.447Z,3.92
2023-05-17T09:41:45.593Z,3.50
2023-05-17T09:44:14.094Z,3.45
2023-05-17T09:46:44.506Z,3.33
2023-05-17T09:49:11.531Z,3.53
2023-05-17T09:51:42.854Z,3.35
2023-05-17T09:54:10.577Z,4.05
2023-05-17T09:56:40.282Z,4.00
2023-05-17T09:59:16.232Z,3.55
2023-05-17T10:01:48.126Z,3.92
2023-05-17T10:04:20.727Z,3.53
2023-05-17T10:06:52.350Z,3.53
2023-05-17T10:09:24.354Z,4.03
2023-05-17T10:11:53.149Z,3.88
2023-05-17T10:14:33.960Z,4.70
2023-05-17T10:17:03.412Z,3.35
2023-05-17T10:19:31.431Z,3.50
2023-05-17T10:22:08.385Z,3.88
2023-05-17T10:24:46.730Z,3.38
2023-05-17T10:27:13.871Z,4.15
2023-05-17T10:29:42.277Z,4.30
2023-05-17T10:32:09.544Z,3.85
2023-05-17T10:34:39.750Z,3.53
2023-05-17T10:37:07.782Z,3.35
2023-05-17T10:39:38.810Z,3.22
2023-05-17T10:42:14.731Z,3.78
2023-05-17T10:44:42.452Z,4.40
2023-05-17T10:47:10.258Z,3.05
2023-05-17T10:49:45.317Z,3.97
2023-05-17T10:52:13.266Z,3.55
2023-05-17T10:54:43.337Z,3.53
2023-05-17T10:57:20.010Z,3.85
2023-05-17T10:59:58.504Z,3.65
2023-05-17T11:02:31.916Z,3.92
2023-05-17T11:05:00.570Z,3.78
2023-05-17T11:07:32.218Z,3.78
2023-05-17T11:10:10.788Z,3.67
2023-05-17T11:12:40.872Z,4.30
2023-05-17T11:15:08.842Z,4.18
2023-05-17T11:17:52.805Z,4.32
2023-05-17T11:20:25.840Z,4.50
2023-05-17T11:23:00.619Z,4.55
2023-05-17T11:25:36.246Z,4.28
2023-05-17T11:28:18.323Z,5.07
2023-05-17T11:33:32.490Z,4.72
2023-05-17T11:36:05.453Z,4.63
2023-05-17T11:38:33.159Z,4.75
2023-05-17T11:43:52.129Z,5.18
2023-05-17T11:46:21.044Z,6.00
2023-05-17T11:48:50.314Z,5.93
2023-05-17T11:51:18.230Z,5.03
2023-05-17T11:53:47.253Z,5.72
2023-05-17T11:56:15.208Z,5.07
2023-05-17T11:58:43.472Z,5.90
2023-05-17T12:01:10.796Z,6.13
2023-05-17T12:03:37.737Z,5.18
2023-05-17T12:06:05.513Z,5.40
2023-05-17T12:08:34.869Z,5.68
2023-05-17T12:11:02.316Z,4.75
2023-05-17T12:13:30.397Z,5.55
2023-05-17T12:15:59.857Z,5.28
2023-05-17T12:18:40.028Z,4.63
2023-05-17T12:21:08.832Z,4.35
2023-05-17T12:23:50.976Z,4.70
2023-05-17T12:26:19.525Z,5.38
2023-05-17T12:28:59.959Z,5.35
2023-05-17T12:31:36.731Z,4.68
2023-05-17T12:34:06.083Z,4.60
2023-05-17T12:36:34.234Z,5.32
2023-05-17T12:39:01.855Z,5.57
2023-05-17T12:41:30.044Z,5.07
2023-05-17T12:44:13.865Z,5.22
2023-05-17T12:46:43.002Z,5.03
2023-05-17T12:49:11.932Z,4.70
2023-05-17T12:51:44.564Z,4.20
2023-05-17T12:54:25.106Z,4.97
2023-05-17T12:56:52.182Z,3.80
2023-05-17T12:59:26.062Z,4.45
2023-05-17T13:01:58.001Z,4.32
2023-05-17T13:07:03.743Z,4.38
2023-05-17T13:09:32.157Z,3.85
2023-05-17T13:12:02.146Z,4.50
2023-05-17T13:14:36.488Z,4.20
2023-05-17T13:17:05.091Z,3.88
2023-05-17T13:19:32.254Z,3.90
2023-05-17T13:21:59.184Z,3.72
2023-05-17T13:24:28.199Z,4.30
2023-05-17T13:26:54.966Z,3.83
2023-05-17T13:29:35.237Z,4.10
2023-05-17T13:32:07.504Z,3.72
2023-05-17T13:34:34.336Z,4.18
2023-05-17T13:37:01.321Z,6.07
2023-05-17T13:39:28.800Z,4.22
2023-05-17T13:41:55.738Z,4.50
2023-05-17T13:44:22.846Z,4.95
2023-05-17T13:46:49.647Z,4.97
2023-05-17T13:49:17.520Z,4.07
2023-05-17T13:51:45.133Z,4.03
2023-05-17T13:54:11.993Z,3.97
2023-05-17T13:56:39.080Z,4.15
2023-05-17T13:59:05.844Z,3.85
2023-05-17T14:01:32.747Z,4.30
2023-05-17T14:04:00.894Z,3.88
2023-05-17T14:06:28.348Z,3.85
2023-05-17T14:08:55.999Z,5.40
2023-05-17T14:11:22.951Z,4.15
2023-05-17T14:13:49.800Z,4.93
2023-05-17T14:16:16.762Z,4.78
2023-05-17T14:18:43.649Z,4.20
2023-05-17T14:21:10.591Z,4.40
2023-05-17T14:23:37.819Z,4.97
2023-05-17T14:26:07.615Z,5.40
2023-05-17T14:28:38.182Z,4.43
2023-05-17T14:31:09.446Z,4.82
2023-05-17T14:33:36.823Z,5.47
2023-05-17T14:36:06.853Z,4.45
2023-05-17T14:38:33.672Z,4.47
2023-05-17T14:41:01.211Z,4.22
2023-05-17T14:43:29.278Z,4.43
2023-05-17T14:45:56.207Z,4.63
2023-05-17T14:48:23.044Z,3.70
2023-05-17T14:50:49.970Z,3.90
2023-05-17T14:53:16.782Z,4.68
2023-05-17T14:55:43.551Z,3.40
2023-05-17T14:58:13.636Z,4.15
2023-05-17T15:00:41.992Z,3.63
2023-05-17T15:03:09.341Z,3.63
2023-05-17T15:05:36.574Z,4.28
2023-05-17T15:08:03.398Z,3.65
2023-05-17T15:10:30.129Z,3.80
2023-05-17T15:12:57.041Z,4.38
2023-05-17T15:15:23.858Z,3.15
2023-05-17T15:17:50.644Z,4.13
2023-05-17T15:20:19.011Z,4.15
2023-05-17T15:22:45.889Z,4.20
2023-05-17T15:25:13.034Z,4.00
2023-05-17T15:27:39.784Z,4.68
2023-05-17T15:30:07.426Z,4.82
2023-05-17T15:32:34.350Z,3.88
2023-05-17T15:35:01.166Z,3.53
2023-05-17T15:37:28.352Z,3.78
2023-05-17T15:39:55.130Z,4.07
2023-05-17T15:42:21.890Z,3.92
2023-05-17T15:44:48.686Z,3.70
2023-05-17T15:47:15.398Z,4.28
2023-05-17T15:49:42.217Z,4.13
2023-05-17T15:52:09.405Z,3.70
2023-05-17T15:54:36.186Z,4.63
2023-05-17T15:57:02.948Z,3.85
2023-05-17T15:59:29.744Z,4.57
2023-05-17T16:01:56.574Z,3.67
2023-05-17T16:04:23.333Z,5.13
2023-05-17T16:06:50.162Z,3.33
2023-05-17T16:09:16.923Z,4.15
2023-05-17T16:11:43.813Z,4.55
2023-05-17T16:14:10.598Z,4.13
2023-05-17T16:16:37.375Z,3.63
2023-05-17T16:19:04.742Z,4.00
2023-05-17T16:21:32.800Z,3.10
2023-05-17T16:23:59.586Z,5.13
2023-05-17T16:26:26.661Z,4.25
2023-05-17T16:28:53.679Z,3.95
2023-05-17T16:31:20.537Z,3.38
2023-05-17T16:33:47.409Z,3.47
2023-05-17T16:36:14.238Z,4.00
2023-05-17T16:38:41.088Z,3.72
2023-05-17T16:41:08.069Z,4.22
2023-05-17T16:43:34.960Z,5.85
2023-05-17T16:46:02.119Z,4.93
2023-05-17T16:48:28.998Z,5.10
2023-05-17T16:50:56.172Z,4.95
2023-05-17T16:53:23.106Z,6.07
2023-05-17T16:55:49.921Z,4.03
2023-05-17T16:58:18.874Z,3.90
2023-05-17T17:00:45.934Z,3.25
2023-05-17T17:03:12.777Z,3.63
2023-05-17T17:05:39.636Z,3.25
2023-05-17T17:08:06.384Z,3.33
2023-05-17T17:10:33.297Z,3.70
2023-05-17T17:13:00.095Z,3.78
2023-05-17T17:15:27.451Z,3.65
2023-05-17T17:17:54.292Z,3.72
2023-05-17T17:20:21.250Z,3.30
2023-05-17T17:22:48.106Z,4.40
2023-05-17T17:25:14.974Z,3.75
2023-05-17T17:27:42.232Z,3.80
2023-05-17T17:30:09.446Z,3.60
2023-05-17T17:32:36.393Z,4.93
2023-05-17T17:35:03.342Z,3.55
2023-05-17T17:37:30.173Z,4.18
2023-05-17T17:39:56.951Z,4.22
2023-05-17T17:42:23.723Z,4.70
2023-05-17T17:44:50.594Z,4.50
2023-05-17T17:47:17.473Z,5.07
2023-05-17T17:49:44.348Z,4.20
2023-05-17T17:52:11.161Z,4.45
2023-05-17T17:54:37.937Z,5.68
2023-05-17T17:57:04.991Z,4.80
2023-05-17T17:59:31.784Z,4.50
2023-05-17T18:01:59.865Z,4.72
2023-05-17T18:04:27.106Z,5.05
2023-05-17T18:06:54.918Z,4.68
2023-05-17T18:09:23.403Z,5.13
2023-05-17T18:11:50.149Z,4.68
2023-05-17T18:14:16.967Z,4.10
2023-05-17T18:16:43.932Z,4.93
2023-05-17T18:19:10.821Z,5.03
2023-05-17T18:21:37.792Z,4.57
2023-05-17T18:24:04.882Z,3.83
2023-05-17T18:26:31.672Z,4.00
2023-05-17T18:28:58.473Z,4.38
2023-05-17T18:31:35.879Z,4.10
2023-05-17T18:34:02.890Z,3.90
2023-05-17T18:36:29.733Z,3.58
2023-05-17T18:39:00.978Z,4.38
2023-05-17T18:41:27.912Z,3.33
2023-05-17T18:43:54.722Z,3.03
2023-05-17T18:46:21.542Z,3.03
2023-05-17T18:48:48.877Z,3.10
2023-05-17T18:51:15.909Z,3.85
2023-05-17T18:53:43.414Z,3.40
2023-05-17T18:56:14.711Z,3.08
2023-05-17T18:58:41.512Z,3.85
2023-05-17T19:01:08.630Z,3.20
2023-05-17T19:03:35.537Z,4.22
2023-05-17T19:06:02.372Z,2.65
2023-05-17T19:08:29.212Z,3.42
2023-05-17T19:10:56.068Z,4.93
2023-05-17T19:13:22.782Z,3.17
2023-05-17T19:15:49.683Z,3.10
2023-05-17T19:18:17.633Z,3.42
2023-05-17T19:20:45.031Z,3.67
2023-05-17T19:23:11.938Z,3.40
2023-05-17T19:25:38.848Z,4.18
2023-05-17T19:28:05.614Z,3.40
2023-05-17T19:30:33.149Z,4.47
2023-05-17T19:33:00.449Z,3.83
2023-05-17T19:35:27.448Z,4.07
2023-05-17T19:37:56.733Z,3.92
2023-05-17T19:40:24.242Z,4.20
2023-05-17T19:42:51.311Z,4.07
2023-05-17T19:45:18.122Z,3.90
2023-05-17T19:47:45.076Z,4.03
2023-05-17T19:50:12.235Z,3.78
2023-05-17T19:52:39.317Z,3.33
2023-05-17T19:55:06.579Z,4.28
2023-05-17T19:57:33.391Z,3.67
2023-05-17T20:00:00.103Z,3.50
2023-05-17T20:02:27.097Z,3.20
2023-05-17T20:04:54.191Z,3.90
2023-05-17T20:07:25.756Z,2.92
2023-05-17T20:09:55.514Z,3.38
2023-05-17T20:12:25.775Z,3.55
2023-05-17T20:14:53.644Z,3.80
2023-05-17T20:17:20.767Z,3.10
2023-05-17T20:19:47.885Z,4.68
2023-05-17T20:22:14.844Z,3.45
2023-05-17T20:24:44.082Z,3.75
2023-05-17T20:27:11.389Z,4.82
2023-05-17T20:29:38.552Z,3.08
2023-05-17T20:32:06.338Z,3.22
2023-05-17T20:34:33.712Z,3.40
2023-05-17T20:37:01.190Z,3.35
2023-05-17T20:39:28.277Z,4.88
2023-05-17T20:42:01.377Z,3.22
2023-05-17T20:44:28.213Z,3.42
2023-05-17T20:46:56.857Z,2.83
2023-05-17T20:49:23.670Z,4.13
2023-05-17T20:51:50.458Z,3.25
2023-05-17T20:54:17.210Z,2.88
2023-05-17T20:56:44.071Z,3.50
2023-05-17T20:59:10.977Z,2.80
2023-05-17T21:01:37.975Z,3.72
2023-05-17T21:04:05.087Z,3.05
2023-05-17T21:06:32.834Z,5.28
2023-05-17T21:09:02.651Z,3.90
2023-05-17T21:11:29.902Z,3.10
2023-05-17T21:13:59.996Z,3.05
2023-05-17T21:16:27.130Z,3.40
2023-05-17T21:18:53.959Z,2.67
2023-05-17T21:21:21.310Z,2.67
2023-05-17T21:23:48.908Z,3.03
2023-05-17T21:26:16.240Z,3.83
2023-05-17T21:28:43.117Z,3.33
2023-05-17T21:31:10.105Z,3.17
2023-05-17T21:33:36.926Z,2.95
2023-05-17T21:36:03.937Z,2.92
2023-05-17T21:38:30.827Z,3.22
2023-05-17T21:40:57.658Z,3.45
2023-05-17T21:43:24.625Z,4.32
2023-05-17T21:45:52.013Z,3.20
2023-05-17T21:48:18.768Z,2.63
2023-05-17T21:50:45.695Z,3.03
2023-05-17T21:53:12.548Z,2.88
2023-05-17T21:55:56.367Z,2.40
2023-05-17T21:58:26.741Z,2.35
2023-05-17T22:00:53.966Z,2.80
2023-05-17T22:03:21.485Z,2.47
2023-05-17T22:05:48.435Z,2.67
2023-05-17T22:08:15.185Z,3.08
2023-05-17T22:10:42.258Z,2.45
2023-05-17T22:13:12.290Z,3.13
2023-05-17T22:15:39.324Z,3.42
2023-05-17T22:18:06.278Z,3.22
2023-05-17T22:20:33.264Z,2.78
2023-05-17T22:23:00.304Z,3.28
2023-05-17T22:25:27.216Z,2.45
2023-05-17T22:27:54.004Z,3.13
2023-05-17T22:30:21.580Z,2.90
2023-05-17T22:32:48.429Z,3.10
2023-05-17T22:35:15.234Z,3.10
2023-05-17T22:37:42.872Z,3.72
2023-05-17T22:40:10.914Z,3.05
2023-05-17T22:42:37.784Z,3.13
2023-05-17T22:45:04.961Z,3.08
2023-05-17T22:47:32.098Z,3.08
2023-05-17T22:50:00.845Z,3.22
2023-05-17T22:52:28.285Z,3.30
2023-05-17T22:54:55.091Z,3.75
2023-05-17T22:57:21.880Z,3.03
2023-05-17T22:59:48.752Z,3.20
2023-05-17T23:02:15.592Z,3.25
2023-05-17T23:04:46.025Z,4.72
2023-05-17T23:07:12.989Z,5.38
2023-05-17T23:09:40.746Z,2.85
2023-05-17T23:12:08.978Z,4.40
2023-05-17T23:14:36.977Z,3.03
2023-05-17T23:17:04.742Z,3.40
2023-05-17T23:19:33.209Z,3.58
2023-05-17T23:22:03.304Z,2.80
2023-05-17T23:24:30.265Z,3.47
2023-05-17T23:26:57.839Z,3.25
2023-05-17T23:29:25.987Z,2.97
2023-05-17T23:31:53.279Z,3.20
2023-05-17T23:34:20.148Z,3.92
2023-05-17T23:36:46.957Z,3.38
2023-05-17T23:39:13.722Z,3.05
2023-05-17T23:41:40.519Z,3.72
2023-05-17T23:44:08.043Z,3.13
2023-05-17T23:46:34.978Z,3.42
2023-05-17T23:49:02.424Z,3.70
2023-05-17T23:51:29.473Z,3.53
2023-05-17T23:53:57.399Z,4.57
2023-05-17T23:56:24.191Z,4.85
2023-05-17T23:58:51.056Z,4.40
